createdAt,value
2019-03-20T00:02:57.659Z,71.80
2019-03-20T00:06:02.776Z,70.80
2019-03-20T00:09:09.873Z,70.70
2019-03-20T00:12:15.112Z,70.80
2019-03-20T00:15:19.913Z,70.80
2019-03-20T00:18:24.894Z,71.00
2019-03-20T00:21:29.913Z,71.10
2019-03-20T00:24:35.037Z,71.50
2019-03-20T00:27:39.984Z,71.40
2019-03-20T00:30:45.092Z,71.10
2019-03-20T00:33:50.068Z,70.60
2019-03-20T00:36:54.937Z,70.90
2019-03-20T00:39:59.977Z,71.20
2019-03-20T00:43:05.267Z,70.80
2019-03-20T00:46:10.273Z,69.90
2019-03-20T00:49:15.268Z,69.30
2019-03-20T00:52:20.260Z,68.90
2019-03-20T00:55:25.267Z,69.10
2019-03-20T00:58:30.371Z,69.10
2019-03-20T01:01:35.485Z,69.20
2019-03-20T01:04:40.432Z,69.50
2019-03-20T01:07:45.889Z,70.20
2019-03-20T01:10:50.839Z,69.80
2019-03-20T01:13:55.851Z,69.90
2019-03-20T01:17:00.779Z,69.80
2019-03-20T01:20:05.837Z,71.70
2019-03-20T01:23:10.866Z,71.60
2019-03-20T01:26:15.703Z,71.90
2019-03-20T01:29:20.903Z,72.00
2019-03-20T01:32:25.948Z,73.30
2019-03-20T01:35:31.036Z,72.60
2019-03-20T01:38:36.020Z,73.20
2019-03-20T01:41:41.149Z,72.60
2019-03-20T01:44:46.387Z,72.00
2019-03-20T01:47:51.618Z,70.90
2019-03-20T01:51:10.677Z,70.20
2019-03-20T01:54:15.530Z,69.50
2019-03-20T01:57:20.538Z,69.30
2019-03-20T02:00:25.703Z,69.50
2019-03-20T02:03:49.557Z,69.80
2019-03-20T02:06:54.944Z,69.70
2019-03-20T02:09:59.961Z,70.20
2019-03-20T02:13:05.581Z,69.70
2019-03-20T02:16:10.834Z,70.10
2019-03-20T02:19:15.823Z,70.20
2019-03-20T02:22:20.935Z,69.60
2019-03-20T02:25:25.938Z,69.40
2019-03-20T02:28:31.126Z,69.80
2019-03-20T02:31:41.182Z,69.20
2019-03-20T02:34:46.393Z,68.80
2019-03-20T02:37:51.496Z,68.60
2019-03-20T02:40:56.692Z,68.00
2019-03-20T02:44:01.659Z,67.40
2019-03-20T02:47:06.768Z,67.00
2019-03-20T02:50:11.869Z,67.10
2019-03-20T02:53:16.758Z,67.40
2019-03-20T02:56:21.741Z,67.60
2019-03-20T02:59:26.715Z,68.10
2019-03-20T03:02:31.886Z,67.60
2019-03-20T03:05:36.999Z,67.40
2019-03-20T03:08:42.020Z,67.20
2019-03-20T03:11:47.011Z,66.80
2019-03-20T03:14:51.988Z,67.00
2019-03-20T03:17:56.974Z,66.80
2019-03-20T03:21:01.847Z,66.00
2019-03-20T03:24:06.753Z,66.10
2019-03-20T03:27:20.419Z,65.60
2019-03-20T03:30:25.502Z,65.30
2019-03-20T03:33:30.666Z,65.30
2019-03-20T03:36:35.593Z,65.40
2019-03-20T03:39:40.761Z,65.70
2019-03-20T03:42:45.660Z,66.10
2019-03-20T03:45:50.821Z,66.40
2019-03-20T03:48:55.765Z,65.80
2019-03-20T03:52:00.606Z,65.40
2019-03-20T03:55:06.024Z,65.10
2019-03-20T03:58:10.919Z,65.20
2019-03-20T04:01:16.428Z,65.40
2019-03-20T04:04:25.025Z,66.20
2019-03-20T04:07:30.019Z,66.90
2019-03-20T04:10:35.408Z,67.00
2019-03-20T04:13:40.459Z,66.90
2019-03-20T04:16:45.725Z,67.00
2019-03-20T04:19:50.752Z,67.50
2019-03-20T04:22:56.005Z,67.60
2019-03-20T04:26:00.929Z,68.00
2019-03-20T04:29:06.303Z,68.30
2019-03-20T04:32:11.399Z,68.50
2019-03-20T04:35:16.480Z,68.70
2019-03-20T04:38:21.412Z,68.70
2019-03-20T04:41:26.381Z,69.00
2019-03-20T04:44:31.365Z,69.00
2019-03-20T04:47:36.517Z,68.70
2019-03-20T04:50:41.455Z,68.90
2019-03-20T04:53:46.300Z,69.20
2019-03-20T04:56:51.230Z,69.50
2019-03-20T04:59:56.289Z,68.90
2019-03-20T05:03:01.393Z,68.30
2019-03-20T05:06:14.392Z,68.00
2019-03-20T05:09:19.673Z,68.20
2019-03-20T05:12:24.731Z,67.40
2019-03-20T05:15:29.963Z,67.50
2019-03-20T05:18:41.230Z,67.20
2019-03-20T05:21:46.304Z,67.40
2019-03-20T05:24:51.496Z,67.40
2019-03-20T05:27:56.475Z,67.20
2019-03-20T05:31:01.638Z,67.60
2019-03-20T05:34:06.547Z,67.20
2019-03-20T05:37:11.677Z,66.70
2019-03-20T05:40:16.737Z,67.20
2019-03-20T05:43:21.736Z,66.90
2019-03-20T05:46:26.707Z,66.40
2019-03-20T05:49:31.852Z,66.00
2019-03-20T05:52:37.020Z,65.90
2019-03-20T05:55:41.883Z,66.20
2019-03-20T05:58:46.792Z,65.70
2019-03-20T06:01:51.728Z,65.50
2019-03-20T06:04:56.677Z,65.70
2019-03-20T06:08:01.688Z,65.00
2019-03-20T06:11:06.701Z,63.80
2019-03-20T06:14:11.689Z,64.00
2019-03-20T06:17:16.877Z,64.00
2019-03-20T06:20:21.837Z,63.80
2019-03-20T06:23:26.946Z,63.00
2019-03-20T06:26:31.973Z,62.80
2019-03-20T06:29:36.982Z,62.50
2019-03-20T06:32:42.184Z,62.10
2019-03-20T06:35:47.352Z,61.50
2019-03-20T06:38:53.519Z,61.60
2019-03-20T06:41:58.609Z,61.60
2019-03-20T06:45:03.761Z,61.60
2019-03-20T06:48:08.671Z,60.90
2019-03-20T06:51:13.855Z,60.80
2019-03-20T06:54:18.840Z,59.50
2019-03-20T06:57:23.740Z,58.20
2019-03-20T07:01:05.573Z,57.80
2019-03-20T07:04:31.065Z,56.50
2019-03-20T07:07:43.961Z,53.80
2019-03-20T07:11:05.541Z,52.20
2019-03-20T07:14:10.445Z,45.90
2019-03-20T07:17:15.492Z,34.80
2019-03-20T07:20:20.626Z,30.10
2019-03-20T07:23:26.082Z,26.70
2019-03-20T07:26:31.114Z,24.40
2019-03-20T07:29:36.249Z,20.80
2019-03-20T07:32:41.388Z,22.50
2019-03-20T07:35:46.329Z,22.70
2019-03-20T07:38:51.245Z,22.60
2019-03-20T07:41:56.149Z,22.50
2019-03-20T07:45:01.218Z,23.30
2019-03-20T07:48:09.060Z,24.00
2019-03-20T07:51:14.571Z,23.70
2019-03-20T07:54:19.843Z,24.90
2019-03-20T07:57:24.755Z,24.90
2019-03-20T08:00:29.863Z,23.70
2019-03-20T08:03:34.770Z,23.70
2019-03-20T08:06:39.817Z,22.80
2019-03-20T08:09:44.905Z,22.50
2019-03-20T08:12:49.988Z,22.60
2019-03-20T08:15:55.195Z,23.00
2019-03-20T08:19:00.199Z,23.50
2019-03-20T08:22:05.090Z,24.70
2019-03-20T08:25:10.483Z,24.90
2019-03-20T08:28:15.366Z,25.50
2019-03-20T08:31:20.317Z,25.20
2019-03-20T08:34:25.012Z,25.80
2019-03-20T08:37:33.089Z,26.20
2019-03-20T08:40:38.164Z,25.80
2019-03-20T08:43:45.622Z,25.60
2019-03-20T08:46:50.694Z,26.50
2019-03-20T08:49:55.614Z,27.10
2019-03-20T08:53:00.602Z,27.50
2019-03-20T08:56:15.004Z,27.90
2019-03-20T08:59:12.314Z,27.70
2019-03-20T09:02:17.386Z,26.80
2019-03-20T09:05:22.393Z,25.20
2019-03-20T09:08:29.642Z,25.10
2019-03-20T09:11:34.273Z,24.70
2019-03-20T09:14:39.506Z,24.20
2019-03-20T09:17:44.329Z,24.50
2019-03-20T09:20:49.317Z,24.80
2019-03-20T09:23:57.636Z,25.50
2019-03-20T09:27:02.846Z,25.80
2019-03-20T09:30:13.555Z,25.50
2019-03-20T09:33:18.624Z,26.10
2019-03-20T09:36:23.646Z,25.20
2019-03-20T09:39:28.577Z,25.20
2019-03-20T09:42:33.921Z,25.50
2019-03-20T09:45:39.010Z,25.80
2019-03-20T09:48:43.993Z,25.50
2019-03-20T09:51:48.977Z,25.20
2019-03-20T09:54:53.797Z,25.40
2019-03-20T09:57:59.051Z,26.00
2019-03-20T10:01:03.854Z,26.40
2019-03-20T10:04:09.106Z,26.30
2019-03-20T10:07:14.007Z,26.00
2019-03-20T10:10:20.298Z,25.80
2019-03-20T10:13:26.423Z,25.60
2019-03-20T10:16:31.505Z,25.50
2019-03-20T10:19:43.190Z,25.90
2019-03-20T10:22:48.363Z,24.70
2019-03-20T10:25:53.462Z,23.30
2019-03-20T10:28:58.377Z,22.70
2019-03-20T10:32:03.272Z,22.80
2019-03-20T10:35:09.147Z,23.00
2019-03-20T10:38:15.364Z,22.80
2019-03-20T10:41:20.673Z,18.80
2019-03-20T10:44:25.809Z,16.20
2019-03-20T10:47:30.949Z,14.90
2019-03-20T10:50:35.793Z,14.90
2019-03-20T10:53:40.743Z,13.80
2019-03-20T10:56:45.719Z,14.10
2019-03-20T10:59:50.633Z,14.50
2019-03-20T11:02:55.478Z,15.70
2019-03-20T11:06:00.442Z,15.40
2019-03-20T11:09:17.605Z,14.80
2019-03-20T11:12:14.802Z,14.90
2019-03-20T11:15:20.258Z,13.60
2019-03-20T11:18:25.333Z,14.00
2019-03-20T11:21:30.232Z,14.00
2019-03-20T11:24:35.206Z,13.60
2019-03-20T11:27:40.242Z,14.90
2019-03-20T11:30:51.072Z,11.90
2019-03-20T11:33:56.048Z,11.10
2019-03-20T11:37:01.155Z,11.30
2019-03-20T11:40:11.864Z,11.60
2019-03-20T11:43:16.990Z,12.50
2019-03-20T11:46:21.944Z,13.90
2019-03-20T11:49:28.681Z,15.10
2019-03-20T11:52:33.633Z,16.10
2019-03-20T11:55:39.713Z,17.30
2019-03-20T11:58:51.084Z,18.20
2019-03-20T12:01:55.993Z,19.10
2019-03-20T12:05:01.074Z,18.70
2019-03-20T12:08:06.540Z,16.70
2019-03-20T12:11:11.701Z,14.60
2019-03-20T12:14:16.781Z,13.00
2019-03-20T12:17:21.709Z,12.70
2019-03-20T12:20:29.114Z,11.90
2019-03-20T12:23:34.744Z,12.60
2019-03-20T12:26:41.259Z,11.80
2019-03-20T12:29:46.191Z,12.30
2019-03-20T12:32:51.144Z,12.40
2019-03-20T12:35:56.065Z,12.00
2019-03-20T12:39:01.200Z,11.30
2019-03-20T12:42:06.324Z,11.70
2019-03-20T12:45:13.698Z,12.60
2019-03-20T12:48:18.649Z,12.50
2019-03-20T12:51:23.950Z,11.60
2019-03-20T12:54:29.117Z,12.10
2019-03-20T12:57:33.841Z,11.50
2019-03-20T13:00:38.848Z,10.80
2019-03-20T13:03:43.529Z,10.80
2019-03-20T13:06:48.310Z,10.70
2019-03-20T13:10:03.006Z,11.10
2019-03-20T13:13:00.788Z,11.70
2019-03-20T13:16:06.491Z,11.60
2019-03-20T13:19:11.378Z,11.10
2019-03-20T13:22:16.417Z,11.30
2019-03-20T13:25:21.426Z,11.90
2019-03-20T13:28:26.421Z,13.10
2019-03-20T13:31:31.765Z,14.70
2019-03-20T13:34:36.893Z,16.30
2019-03-20T13:37:42.034Z,16.60
2019-03-20T13:40:47.086Z,17.90
2019-03-20T13:43:52.128Z,18.80
2019-03-20T13:46:57.108Z,19.20
2019-03-20T13:50:05.448Z,19.80
2019-03-20T13:53:17.885Z,19.80
2019-03-20T13:56:22.998Z,19.90
2019-03-20T13:59:28.134Z,19.70
2019-03-20T14:02:33.636Z,20.20
2019-03-20T14:05:38.554Z,20.00
2019-03-20T14:08:52.914Z,20.80
2019-03-20T14:11:58.657Z,20.20
2019-03-20T14:15:03.656Z,20.20
2019-03-20T14:18:08.783Z,20.30
2019-03-20T14:21:13.745Z,21.70
2019-03-20T14:24:18.847Z,22.50
2019-03-20T14:27:23.806Z,23.30
2019-03-20T14:30:36.328Z,23.20
2019-03-20T14:33:41.260Z,23.60
2019-03-20T14:36:46.493Z,23.50
2019-03-20T14:39:51.559Z,23.70
2019-03-20T14:42:56.600Z,23.00
2019-03-20T14:46:01.810Z,22.90
2019-03-20T14:49:06.773Z,23.20
2019-03-20T14:52:11.976Z,23.80
2019-03-20T14:55:17.512Z,23.90
2019-03-20T14:58:22.599Z,24.30
2019-03-20T15:01:27.689Z,24.40
2019-03-20T15:04:32.720Z,24.70
2019-03-20T15:07:37.676Z,24.70
2019-03-20T15:10:46.225Z,25.20
2019-03-20T15:13:49.327Z,24.70
2019-03-20T15:16:54.090Z,25.10
2019-03-20T15:19:59.022Z,25.10
2019-03-20T15:23:04.157Z,25.20
2019-03-20T15:26:09.185Z,25.50
2019-03-20T15:29:14.443Z,25.50
2019-03-20T15:32:19.468Z,25.80
2019-03-20T15:35:24.716Z,26.50
2019-03-20T15:38:29.981Z,27.00
2019-03-20T15:41:35.180Z,27.40
2019-03-20T15:44:40.178Z,27.50
2019-03-20T15:47:45.282Z,25.50
2019-03-20T15:50:50.441Z,25.90
2019-03-20T15:53:55.254Z,26.60
2019-03-20T15:57:00.229Z,27.20
2019-03-20T16:00:06.086Z,27.00
2019-03-20T16:03:13.649Z,26.70
2019-03-20T16:06:18.975Z,26.70
2019-03-20T16:09:32.493Z,26.40
2019-03-20T16:12:58.695Z,26.80
2019-03-20T16:16:04.207Z,26.90
2019-03-20T16:19:09.331Z,27.30
2019-03-20T16:22:14.888Z,27.60
2019-03-20T16:25:19.901Z,28.00
2019-03-20T16:28:25.075Z,28.40
2019-03-20T16:31:30.062Z,28.50
2019-03-20T16:34:35.044Z,29.60
2019-03-20T16:37:40.779Z,29.10
2019-03-20T16:40:45.934Z,28.90
2019-03-20T16:43:51.813Z,29.00
2019-03-20T16:46:57.286Z,29.00
2019-03-20T16:50:02.239Z,29.20
2019-03-20T16:53:07.741Z,29.60
2019-03-20T16:56:12.716Z,29.90
2019-03-20T16:59:17.694Z,30.20
2019-03-20T17:02:22.785Z,30.50
2019-03-20T17:05:30.279Z,30.90
2019-03-20T17:08:35.252Z,31.20
2019-03-20T17:11:41.916Z,31.40
2019-03-20T17:14:47.384Z,31.60
2019-03-20T17:17:52.797Z,31.80
2019-03-20T17:20:58.069Z,31.90
2019-03-20T17:24:05.252Z,32.10
2019-03-20T17:27:10.403Z,32.10
2019-03-20T17:30:24.652Z,32.30
2019-03-20T17:33:32.513Z,32.50
2019-03-20T17:36:37.731Z,32.70
2019-03-20T17:39:42.633Z,32.80
2019-03-20T17:42:53.491Z,33.10
2019-03-20T17:45:58.517Z,33.50
2019-03-20T17:49:03.783Z,33.70
2019-03-20T17:52:08.859Z,33.70
2019-03-20T17:55:34.735Z,34.60
2019-03-20T17:58:39.906Z,34.10
2019-03-20T18:01:45.119Z,34.70
2019-03-20T18:04:50.300Z,35.60
2019-03-20T18:07:55.616Z,35.10
2019-03-20T18:11:00.649Z,34.90
2019-03-20T18:14:05.610Z,35.00
2019-03-20T18:17:13.244Z,36.00
2019-03-20T18:20:20.178Z,36.10
2019-03-20T18:23:25.142Z,36.30
2019-03-20T18:26:33.597Z,36.70
2019-03-20T18:29:38.621Z,37.20
2019-03-20T18:32:43.785Z,37.50
2019-03-20T18:35:52.026Z,37.90
2019-03-20T18:38:57.169Z,38.40
2019-03-20T18:42:05.069Z,38.70
2019-03-20T18:45:11.336Z,39.00
2019-03-20T18:48:16.237Z,39.10
2019-03-20T18:51:22.862Z,39.60
2019-03-20T18:54:29.153Z,39.80
2019-03-20T18:57:34.296Z,40.20
2019-03-20T19:00:39.380Z,40.20
2019-03-20T19:03:46.051Z,40.20
2019-03-20T19:06:51.175Z,40.50
2019-03-20T19:09:56.244Z,40.80
2019-03-20T19:13:03.103Z,41.00
2019-03-20T19:16:09.668Z,41.40
2019-03-20T19:19:14.795Z,41.50
2019-03-20T19:22:19.953Z,41.80
2019-03-20T19:25:25.117Z,42.00
2019-03-20T19:28:30.071Z,42.40
2019-03-20T19:31:55.812Z,42.70
2019-03-20T19:35:01.096Z,42.90
2019-03-20T19:38:06.325Z,43.20
2019-03-20T19:41:12.515Z,43.60
2019-03-20T19:44:17.565Z,43.70
2019-03-20T19:47:22.558Z,43.70
2019-03-20T19:50:27.756Z,43.80
2019-03-20T19:53:32.873Z,44.10
2019-03-20T19:56:38.715Z,44.20
2019-03-20T19:59:43.887Z,44.30
2019-03-20T20:02:48.955Z,44.90
2019-03-20T20:05:53.915Z,44.80
2019-03-20T20:08:59.013Z,45.20
2019-03-20T20:12:04.995Z,45.50
2019-03-20T20:15:13.505Z,45.70
2019-03-20T20:18:20.588Z,45.70
2019-03-20T20:21:26.142Z,45.80
2019-03-20T20:24:31.789Z,46.00
2019-03-20T20:27:36.902Z,46.20
2019-03-20T20:30:42.137Z,46.40
2019-03-20T20:33:47.600Z,46.60
2019-03-20T20:36:52.645Z,46.70
2019-03-20T20:40:02.465Z,46.70
2019-03-20T20:43:07.511Z,46.90
2019-03-20T20:46:12.735Z,47.00
2019-03-20T20:49:18.035Z,47.40
2019-03-20T20:52:23.194Z,47.60
2019-03-20T20:55:28.292Z,47.90
2019-03-20T20:58:33.457Z,47.90
2019-03-20T21:01:38.609Z,48.10
2019-03-20T21:04:43.672Z,48.20
2019-03-20T21:07:48.777Z,48.20
2019-03-20T21:10:53.936Z,48.80
2019-03-20T21:13:59.038Z,48.80
2019-03-20T21:17:04.598Z,48.80
2019-03-20T21:20:10.721Z,48.90
2019-03-20T21:24:07.648Z,49.40
2019-03-20T21:27:50.602Z,49.40
2019-03-20T21:31:23.354Z,49.40
2019-03-20T21:35:01.288Z,49.60
2019-03-20T21:38:08.100Z,49.70
2019-03-20T21:41:56.414Z,49.80
2019-03-20T21:45:28.285Z,49.80
2019-03-20T21:48:34.172Z,50.20
2019-03-20T21:51:40.090Z,50.40
2019-03-20T21:55:38.497Z,50.50
2019-03-20T21:58:52.191Z,50.40
2019-03-20T22:02:20.745Z,50.60
2019-03-20T22:06:00.190Z,50.60
2019-03-20T22:09:13.134Z,50.60
2019-03-20T22:12:41.240Z,50.80
2019-03-20T22:16:23.309Z,50.80
2019-03-20T22:20:02.740Z,51.60
2019-03-20T22:23:28.949Z,51.50
2019-03-20T22:27:09.862Z,51.50
2019-03-20T22:30:16.984Z,51.50
2019-03-20T22:33:57.467Z,51.70
2019-03-20T22:37:03.056Z,51.60
2019-03-20T22:40:57.903Z,51.60
2019-03-20T22:44:06.075Z,51.60
2019-03-20T22:47:55.869Z,51.70
2019-03-20T22:51:33.668Z,51.80
2019-03-20T22:55:18.550Z,52.10
2019-03-20T22:58:48.857Z,52.30
2019-03-20T23:02:14.425Z,52.50
2019-03-20T23:05:20.327Z,52.50
2019-03-20T23:08:25.847Z,52.60
2019-03-20T23:11:31.580Z,52.80
2019-03-20T23:14:37.202Z,52.90
2019-03-20T23:17:42.537Z,52.90
2019-03-20T23:20:48.236Z,52.90
2019-03-20T23:23:57.853Z,53.20
2019-03-20T23:27:05.149Z,53.60
2019-03-20T23:30:16.701Z,54.00
2019-03-20T23:33:27.475Z,53.80
2019-03-20T23:36:33.168Z,53.90
2019-03-20T23:39:38.737Z,54.10
2019-03-20T23:42:44.762Z,54.10
2019-03-20T23:45:50.356Z,54.20
2019-03-20T23:49:05.606Z,54.10
2019-03-20T23:52:15.989Z,54.20
2019-03-20T23:55:21.388Z,54.40
2019-03-20T23:58:26.977Z,54.50
